sensor_id;sensor_type;location;lat;lon;timestamp;pressure;altitude;pressure_sealevel;temperature;humidity
43125;BME280;49182;50.788;7.318;2023-04-01T00:00:27;98813.00;;;10.85;73.54
43125;BME280;49182;50.788;7.318;2023-04-01T00:02:54;98821.53;;;10.87;74.35
43125;BME280;49182;50.788;7.318;2023-04-01T00:05:22;98798.31;;;10.83;74.07
43125;BME280;49182;50.788;7.318;2023-04-01T00:07:48;98811.78;;;10.88;74.33
43125;BME280;49182;50.788;7.318;2023-04-01T00:10:15;98811.44;;;10.91;74.46
43125;BME280;49182;50.788;7.318;2023-04-01T00:12:42;98810.16;;;10.72;74.88
43125;BME280;49182;50.788;7.318;2023-04-01T00:15:11;98807.94;;;10.76;75.38
43125;BME280;49182;50.788;7.318;2023-04-01T00:17:38;98818.88;;;10.73;75.00
43125;BME280;49182;50.788;7.318;2023-04-01T00:20:06;98792.34;;;10.51;75.80
43125;BME280;49182;50.788;7.318;2023-04-01T00:22:34;98813.94;;;10.70;75.88
43125;BME280;49182;50.788;7.318;2023-04-01T00:25:01;98810.88;;;10.66;75.94
43125;BME280;49182;50.788;7.318;2023-04-01T00:27:28;98817.19;;;10.57;76.08
43125;BME280;49182;50.788;7.318;2023-04-01T00:29:55;98803.47;;;10.62;76.42
43125;BME280;49182;50.788;7.318;2023-04-01T00:32:21;98805.75;;;10.65;75.70
43125;BME280;49182;50.788;7.318;2023-04-01T00:34:50;98811.84;;;10.65;75.83
43125;BME280;49182;50.788;7.318;2023-04-01T00:37:16;98803.66;;;10.60;77.09
43125;BME280;49182;50.788;7.318;2023-04-01T00:39:44;98789.06;;;10.49;75.69
43125;BME280;49182;50.788;7.318;2023-04-01T00:42:11;98791.53;;;10.51;75.94
43125;BME280;49182;50.788;7.318;2023-04-01T00:44:38;98806.31;;;10.60;75.86
43125;BME280;49182;50.788;7.318;2023-04-01T00:47:05;98781.84;;;10.43;75.45
43125;BME280;49182;50.788;7.318;2023-04-01T00:49:34;98798.66;;;10.65;75.46
43125;BME280;49182;50.788;7.318;2023-04-01T00:52:05;98801.03;;;10.60;75.36
43125;BME280;49182;50.788;7.318;2023-04-01T00:54:34;98761.28;;;10.39;75.76
43125;BME280;49182;50.788;7.318;2023-04-01T00:57:05;98809.22;;;10.65;75.45
43125;BME280;49182;50.788;7.318;2023-04-01T00:59:34;98778.00;;;10.54;74.79
43125;BME280;49182;50.788;7.318;2023-04-01T01:02:04;98787.44;;;10.63;74.57
43125;BME280;49182;50.788;7.318;2023-04-01T01:04:33;98805.31;;;10.61;74.41
43125;BME280;49182;50.788;7.318;2023-04-01T01:07:12;98795.47;;;10.70;74.09
43125;BME280;49182;50.788;7.318;2023-04-01T01:09:49;98783.81;;;10.64;74.39
43125;BME280;49182;50.788;7.318;2023-04-01T01:12:22;98788.03;;;10.73;73.94
43125;BME280;49182;50.788;7.318;2023-04-01T01:14:55;98794.38;;;10.64;74.79
43125;BME280;49182;50.788;7.318;2023-04-01T01:17:34;98798.66;;;10.65;74.27
43125;BME280;49182;50.788;7.318;2023-04-01T01:23:40;98777.72;;;10.64;74.70
43125;BME280;49182;50.788;7.318;2023-04-01T01:26:18;98798.00;;;10.63;74.52
43125;BME280;49182;50.788;7.318;2023-04-01T01:29:13;98777.28;;;10.60;75.00
43125;BME280;49182;50.788;7.318;2023-04-01T01:31:52;98789.75;;;10.66;74.82
43125;BME280;49182;50.788;7.318;2023-04-01T01:34:30;98744.56;;;10.46;74.27
43125;BME280;49182;50.788;7.318;2023-04-01T01:37:05;98774.91;;;10.65;74.37
43125;BME280;49182;50.788;7.318;2023-04-01T01:39:36;98776.34;;;10.53;73.72
43125;BME280;49182;50.788;7.318;2023-04-01T01:42:06;98781.19;;;10.64;74.01
43125;BME280;49182;50.788;7.318;2023-04-01T01:44:35;98776.44;;;10.60;74.68
43125;BME280;49182;50.788;7.318;2023-04-01T01:47:05;98698.25;;;10.06;74.29
43125;BME280;49182;50.788;7.318;2023-04-01T01:49:33;98773.00;;;10.59;75.36
43125;BME280;49182;50.788;7.318;2023-04-01T01:52:03;98776.16;;;10.54;73.92
43125;BME280;49182;50.788;7.318;2023-04-01T01:54:29;98786.13;;;10.67;74.35
43125;BME280;49182;50.788;7.318;2023-04-01T01:57:03;98789.38;;;10.69;74.11
43125;BME280;49182;50.788;7.318;2023-04-01T01:59:33;98785.91;;;10.69;73.65
43125;BME280;49182;50.788;7.318;2023-04-01T02:02:02;98786.19;;;10.59;73.61
43125;BME280;49182;50.788;7.318;2023-04-01T02:04:30;98791.47;;;10.59;73.00
43125;BME280;49182;50.788;7.318;2023-04-01T02:07:01;98790.38;;;10.68;73.13
43125;BME280;49182;50.788;7.318;2023-04-01T02:09:31;98786.72;;;10.69;72.87
43125;BME280;49182;50.788;7.318;2023-04-01T02:12:00;98775.34;;;10.69;73.16
43125;BME280;49182;50.788;7.318;2023-04-01T02:14:38;98774.44;;;10.62;73.00
43125;BME280;49182;50.788;7.318;2023-04-01T02:17:10;98778.66;;;10.71;72.75
43125;BME280;49182;50.788;7.318;2023-04-01T02:19:39;98744.91;;;10.43;72.91
43125;BME280;49182;50.788;7.318;2023-04-01T02:22:10;98775.56;;;10.67;72.89
43125;BME280;49182;50.788;7.318;2023-04-01T02:24:40;98783.81;;;10.64;73.51
43125;BME280;49182;50.788;7.318;2023-04-01T02:27:08;98770.06;;;10.54;74.44
43125;BME280;49182;50.788;7.318;2023-04-01T02:29:36;98783.38;;;10.61;74.90
43125;BME280;49182;50.788;7.318;2023-04-01T02:32:07;98789.47;;;10.61;75.37
43125;BME280;49182;50.788;7.318;2023-04-01T02:34:36;98786.34;;;10.58;76.11
43125;BME280;49182;50.788;7.318;2023-04-01T02:37:03;98779.81;;;10.53;76.51
43125;BME280;49182;50.788;7.318;2023-04-01T02:39:31;98776.16;;;10.54;75.87
43125;BME280;49182;50.788;7.318;2023-04-01T02:41:59;98777.63;;;10.57;76.35
43125;BME280;49182;50.788;7.318;2023-04-01T02:44:26;98774.84;;;10.36;77.21
43125;BME280;49182;50.788;7.318;2023-04-01T02:46:52;98790.13;;;10.40;77.25
43125;BME280;49182;50.788;7.318;2023-04-01T02:49:19;98784.22;;;10.38;78.51
43125;BME280;49182;50.788;7.318;2023-04-01T02:51:46;98783.88;;;10.41;78.00
43125;BME280;49182;50.788;7.318;2023-04-01T02:54:13;98789.69;;;10.37;78.40
43125;BME280;49182;50.788;7.318;2023-04-01T02:56:40;98667.81;;;9.58;78.95
43125;BME280;49182;50.788;7.318;2023-04-01T02:59:08;98783.28;;;10.31;79.99
43125;BME280;49182;50.788;7.318;2023-04-01T03:01:35;98792.00;;;10.32;79.67
43125;BME280;49182;50.788;7.318;2023-04-01T03:04:02;98752.09;;;9.89;80.19
43125;BME280;49182;50.788;7.318;2023-04-01T03:06:29;98792.94;;;10.16;81.41
43125;BME280;49182;50.788;7.318;2023-04-01T03:08:55;98781.69;;;9.99;81.36
43125;BME280;49182;50.788;7.318;2023-04-01T03:11:22;98795.09;;;10.12;82.03
43125;BME280;49182;50.788;7.318;2023-04-01T03:13:49;98800.84;;;10.16;81.78
43125;BME280;49182;50.788;7.318;2023-04-01T03:16:17;98770.38;;;9.91;82.28
43125;BME280;49182;50.788;7.318;2023-04-01T03:18:44;98798.78;;;10.03;83.14
43125;BME280;49182;50.788;7.318;2023-04-01T03:21:15;98803.59;;;10.00;83.81
43125;BME280;49182;50.788;7.318;2023-04-01T03:23:42;98798.97;;;10.02;83.74
43125;BME280;49182;50.788;7.318;2023-04-01T03:26:08;98791.06;;;10.02;83.81
43125;BME280;49182;50.788;7.318;2023-04-01T03:28:36;98791.59;;;9.97;84.79
43125;BME280;49182;50.788;7.318;2023-04-01T03:31:03;98794.50;;;10.02;84.21
43125;BME280;49182;50.788;7.318;2023-04-01T03:33:37;98781.25;;;9.88;85.18
43125;BME280;49182;50.788;7.318;2023-04-01T03:36:05;98790.69;;;9.82;86.32
43125;BME280;49182;50.788;7.318;2023-04-01T03:38:35;98743.75;;;9.55;87.15
43125;BME280;49182;50.788;7.318;2023-04-01T03:41:02;98792.91;;;9.70;87.13
43125;BME280;49182;50.788;7.318;2023-04-01T03:43:30;98787.47;;;9.72;87.26
43125;BME280;49182;50.788;7.318;2023-04-01T03:45:57;98789.25;;;9.80;86.76
43125;BME280;49182;50.788;7.318;2023-04-01T03:48:24;98756.06;;;9.62;87.51
43125;BME280;49182;50.788;7.318;2023-04-01T03:50:52;98785.47;;;9.74;87.50
43125;BME280;49182;50.788;7.318;2023-04-01T03:53:19;98785.53;;;9.66;88.15
43125;BME280;49182;50.788;7.318;2023-04-01T03:55:46;98756.81;;;9.48;88.54
43125;BME280;49182;50.788;7.318;2023-04-01T03:58:14;98785.22;;;9.61;88.84
43125;BME280;49182;50.788;7.318;2023-04-01T04:00:41;98776.66;;;9.59;88.97
43125;BME280;49182;50.788;7.318;2023-04-01T04:03:08;98778.88;;;9.47;89.91
43125;BME280;49182;50.788;7.318;2023-04-01T04:05:35;98743.09;;;9.22;90.00
43125;BME280;49182;50.788;7.318;2023-04-01T04:08:04;98784.31;;;9.46;89.73
43125;BME280;49182;50.788;7.318;2023-04-01T04:10:31;98794.84;;;9.46;90.57
43125;BME280;49182;50.788;7.318;2023-04-01T04:12:58;98785.28;;;9.45;89.50
43125;BME280;49182;50.788;7.318;2023-04-01T04:15:28;98787.06;;;9.52;89.50
43125;BME280;49182;50.788;7.318;2023-04-01T04:17:54;98777.25;;;9.38;89.46
43125;BME280;49182;50.788;7.318;2023-04-01T04:20:21;98790.69;;;9.51;88.91
43125;BME280;49182;50.788;7.318;2023-04-01T04:22:48;98778.88;;;9.47;89.15
43125;BME280;49182;50.788;7.318;2023-04-01T04:25:16;98786.47;;;9.42;88.98
43125;BME280;49182;50.788;7.318;2023-04-01T04:27:43;98779.69;;;9.48;88.55
43125;BME280;49182;50.788;7.318;2023-04-01T04:30:12;98785.91;;;9.55;87.73
43125;BME280;49182;50.788;7.318;2023-04-01T04:32:39;98753.09;;;9.34;87.03
43125;BME280;49182;50.788;7.318;2023-04-01T04:35:07;98785.09;;;9.54;86.69
43125;BME280;49182;50.788;7.318;2023-04-01T04:37:34;98779.47;;;9.57;86.21
43125;BME280;49182;50.788;7.318;2023-04-01T04:40:00;98786.22;;;9.60;85.63
43125;BME280;49182;50.788;7.318;2023-04-01T04:42:29;98786.19;;;9.68;85.37
43125;BME280;49182;50.788;7.318;2023-04-01T04:45:03;98793.72;;;9.71;85.28
43125;BME280;49182;50.788;7.318;2023-04-01T04:47:31;98786.50;;;9.65;85.15
43125;BME280;49182;50.788;7.318;2023-04-01T04:49:57;98789.94;;;9.73;84.41
43125;BME280;49182;50.788;7.318;2023-04-01T04:52:24;98791.25;;;9.69;84.36
43125;BME280;49182;50.788;7.318;2023-04-01T04:54:51;98796.03;;;9.74;84.56
43125;BME280;49182;50.788;7.318;2023-04-01T04:57:17;98794.50;;;9.80;83.80
43125;BME280;49182;50.788;7.318;2023-04-01T04:59:53;98794.66;;;9.78;83.93
43125;BME280;49182;50.788;7.318;2023-04-01T05:02:31;98797.47;;;9.77;83.49
43125;BME280;49182;50.788;7.318;2023-04-01T05:04:57;98800.09;;;9.77;83.41
43125;BME280;49182;50.788;7.318;2023-04-01T05:07:24;98810.94;;;9.82;83.51
43125;BME280;49182;50.788;7.318;2023-04-01T05:09:50;98805.88;;;9.80;83.73
43125;BME280;49182;50.788;7.318;2023-04-01T05:12:17;98808.00;;;9.77;84.43
43125;BME280;49182;50.788;7.318;2023-04-01T05:14:56;98805.75;;;9.73;84.89
43125;BME280;49182;50.788;7.318;2023-04-01T05:17:23;98799.66;;;9.73;85.13
43125;BME280;49182;50.788;7.318;2023-04-01T05:19:50;98774.44;;;9.40;85.71
43125;BME280;49182;50.788;7.318;2023-04-01T05:22:16;98812.81;;;9.73;85.97
43125;BME280;49182;50.788;7.318;2023-04-01T05:24:43;98816.47;;;9.64;86.55
43125;BME280;49182;50.788;7.318;2023-04-01T05:27:11;98794.16;;;9.52;86.45
43125;BME280;49182;50.788;7.318;2023-04-01T05:29:39;98812.16;;;9.40;88.29
43125;BME280;49182;50.788;7.318;2023-04-01T05:32:11;98804.22;;;9.48;87.81
43125;BME280;49182;50.788;7.318;2023-04-01T05:34:38;98797.47;;;9.46;87.74
43125;BME280;49182;50.788;7.318;2023-04-01T05:37:05;98823.78;;;9.54;88.14
43125;BME280;49182;50.788;7.318;2023-04-01T05:39:32;98821.63;;;9.57;87.69
43125;BME280;49182;50.788;7.318;2023-04-01T05:42:02;98818.69;;;9.52;88.29
43125;BME280;49182;50.788;7.318;2023-04-01T05:44:29;98813.94;;;9.48;88.66
43125;BME280;49182;50.788;7.318;2023-04-01T05:47:01;98823.25;;;9.58;88.21
43125;BME280;49182;50.788;7.318;2023-04-01T05:49:30;98822.94;;;9.61;88.01
43125;BME280;49182;50.788;7.318;2023-04-01T05:51:57;98820.94;;;9.63;87.46
43125;BME280;49182;50.788;7.318;2023-04-01T05:54:24;98825.56;;;9.61;88.12
43125;BME280;49182;50.788;7.318;2023-04-01T05:56:50;98827.72;;;9.58;88.28
43125;BME280;49182;50.788;7.318;2023-04-01T05:59:19;98763.88;;;9.17;89.07
43125;BME280;49182;50.788;7.318;2023-04-01T06:01:45;98814.91;;;9.47;89.43
43125;BME280;49182;50.788;7.318;2023-04-01T06:04:16;98832.97;;;9.58;88.97
43125;BME280;49182;50.788;7.318;2023-04-01T06:06:45;98810.34;;;9.41;89.76
43125;BME280;49182;50.788;7.318;2023-04-01T06:09:14;98831.03;;;9.52;89.75
43125;BME280;49182;50.788;7.318;2023-04-01T06:12:04;98831.34;;;9.57;89.71
43125;BME280;49182;50.788;7.318;2023-04-01T06:14:48;98835.63;;;9.58;89.79
43125;BME280;49182;50.788;7.318;2023-04-01T06:17:24;98836.59;;;9.57;90.91
43125;BME280;49182;50.788;7.318;2023-04-01T06:19:58;98831.16;;;9.58;90.98
43125;BME280;49182;50.788;7.318;2023-04-01T06:22:51;98842.66;;;9.65;90.82
43125;BME280;49182;50.788;7.318;2023-04-01T06:25:31;98832.34;;;9.56;90.59
43125;BME280;49182;50.788;7.318;2023-04-01T06:28:23;98821.00;;;9.55;89.90
43125;BME280;49182;50.788;7.318;2023-04-01T06:31:02;98855.38;;;9.62;90.76
43125;BME280;49182;50.788;7.318;2023-04-01T06:33:49;98850.44;;;9.59;90.90
43125;BME280;49182;50.788;7.318;2023-04-01T06:36:43;98858.94;;;9.69;90.71
43125;BME280;49182;50.788;7.318;2023-04-01T06:39:26;98859.28;;;9.74;90.54
43125;BME280;49182;50.788;7.318;2023-04-01T06:42:09;98795.34;;;9.41;90.47
43125;BME280;49182;50.788;7.318;2023-04-01T06:44:46;98859.56;;;9.79;90.45
43125;BME280;49182;50.788;7.318;2023-04-01T06:47:49;98871.69;;;9.88;89.54
43125;BME280;49182;50.788;7.318;2023-04-01T06:50:40;98858.09;;;9.77;90.37
43125;BME280;49182;50.788;7.318;2023-04-01T06:53:31;98867.44;;;9.87;90.34
43125;BME280;49182;50.788;7.318;2023-04-01T06:56:25;98871.84;;;9.95;89.35
43125;BME280;49182;50.788;7.318;2023-04-01T06:59:01;98858.53;;;9.88;89.31
43125;BME280;49182;50.788;7.318;2023-04-01T07:01:35;98876.94;;;9.96;89.65
43125;BME280;49182;50.788;7.318;2023-04-01T07:04:06;98880.03;;;10.00;90.23
43125;BME280;49182;50.788;7.318;2023-04-01T07:06:39;98880.63;;;9.87;89.53
43125;BME280;49182;50.788;7.318;2023-04-01T07:09:11;98885.31;;;10.00;89.99
43125;BME280;49182;50.788;7.318;2023-04-01T07:12:05;98886.97;;;10.01;89.29
43125;BME280;49182;50.788;7.318;2023-04-01T07:15:02;98885.13;;;10.09;89.30
43125;BME280;49182;50.788;7.318;2023-04-01T07:17:32;98873.91;;;10.07;89.23
43125;BME280;49182;50.788;7.318;2023-04-01T07:20:03;98888.34;;;10.28;88.53
43125;BME280;49182;50.788;7.318;2023-04-01T07:22:33;98883.75;;;10.22;88.27
43125;BME280;49182;50.788;7.318;2023-04-01T07:25:22;98891.44;;;10.31;88.69
43125;BME280;49182;50.788;7.318;2023-04-01T07:28:04;98887.28;;;10.37;88.11
43125;BME280;49182;50.788;7.318;2023-04-01T07:30:40;98891.03;;;10.42;88.06
43125;BME280;49182;50.788;7.318;2023-04-01T07:33:14;98890.94;;;10.36;87.59
43125;BME280;49182;50.788;7.318;2023-04-01T07:35:45;98888.41;;;10.42;87.75
43125;BME280;49182;50.788;7.318;2023-04-01T07:38:20;98902.19;;;10.52;87.31
43125;BME280;49182;50.788;7.318;2023-04-01T07:40:56;98892.44;;;10.53;87.23
43125;BME280;49182;50.788;7.318;2023-04-01T07:43:48;98899.81;;;10.58;87.69
43125;BME280;49182;50.788;7.318;2023-04-01T07:46:44;98895.38;;;10.58;88.10
43125;BME280;49182;50.788;7.318;2023-04-01T07:49:16;98900.22;;;10.69;88.00
43125;BME280;49182;50.788;7.318;2023-04-01T07:51:50;98899.41;;;10.69;87.80
43125;BME280;49182;50.788;7.318;2023-04-01T07:54:22;98898.13;;;10.65;88.08
43125;BME280;49182;50.788;7.318;2023-04-01T07:56:57;98908.31;;;10.68;88.30
43125;BME280;49182;50.788;7.318;2023-04-01T07:59:49;98907.03;;;10.64;88.22
43125;BME280;49182;50.788;7.318;2023-04-01T08:02:32;98916.88;;;10.70;88.25
43125;BME280;49182;50.788;7.318;2023-04-01T08:05:13;98916.56;;;10.73;88.29
43125;BME280;49182;50.788;7.318;2023-04-01T08:07:47;98911.50;;;10.63;87.96
43125;BME280;49182;50.788;7.318;2023-04-01T08:10:43;98916.59;;;10.65;89.54
43125;BME280;49182;50.788;7.318;2023-04-01T08:13:37;98937.97;;;10.55;89.05
43125;BME280;49182;50.788;7.318;2023-04-01T08:16:35;98936.78;;;10.58;89.83
43125;BME280;49182;50.788;7.318;2023-04-01T08:19:15;98941.34;;;10.64;89.71
43125;BME280;49182;50.788;7.318;2023-04-01T08:21:47;98944.81;;;10.64;89.97
43125;BME280;49182;50.788;7.318;2023-04-01T08:24:26;98941.94;;;10.51;90.75
43125;BME280;49182;50.788;7.318;2023-04-01T08:27:16;98944.28;;;10.46;90.79
43125;BME280;49182;50.788;7.318;2023-04-01T08:29:48;98944.53;;;10.59;91.03
43125;BME280;49182;50.788;7.318;2023-04-01T08:32:24;98953.88;;;10.62;90.68
43125;BME280;49182;50.788;7.318;2023-04-01T08:35:06;98954.69;;;10.39;90.53
43125;BME280;49182;50.788;7.318;2023-04-01T08:37:38;98945.69;;;10.57;90.71
43125;BME280;49182;50.788;7.318;2023-04-01T08:40:22;98951.09;;;10.63;91.06
43125;BME280;49182;50.788;7.318;2023-04-01T08:43:03;98960.69;;;10.56;92.29
43125;BME280;49182;50.788;7.318;2023-04-01T08:45:48;98965.16;;;10.55;92.26
43125;BME280;49182;50.788;7.318;2023-04-01T08:48:36;98957.34;;;10.62;92.79
43125;BME280;49182;50.788;7.318;2023-04-01T08:51:25;98965.84;;;10.49;92.99
43125;BME280;49182;50.788;7.318;2023-04-01T08:54:22;98968.94;;;10.61;92.92
43125;BME280;49182;50.788;7.318;2023-04-01T08:57:03;98966.47;;;10.60;93.33
43125;BME280;49182;50.788;7.318;2023-04-01T08:59:55;98975.78;;;10.70;92.75
43125;BME280;49182;50.788;7.318;2023-04-01T09:03:14;98976.47;;;10.64;93.19
43125;BME280;49182;50.788;7.318;2023-04-01T09:06:06;98985.19;;;10.73;93.04
43125;BME280;49182;50.788;7.318;2023-04-01T09:08:51;98990.66;;;10.63;93.96
43125;BME280;49182;50.788;7.318;2023-04-01T09:11:28;98990.13;;;10.68;94.41
43125;BME280;49182;50.788;7.318;2023-04-01T09:14:26;98989.69;;;10.64;94.26
43125;BME280;49182;50.788;7.318;2023-04-01T09:20:30;98999.00;;;10.75;94.75
43125;BME280;49182;50.788;7.318;2023-04-01T09:23:21;98989.63;;;10.72;94.45
43125;BME280;49182;50.788;7.318;2023-04-01T09:25:59;99005.34;;;10.88;94.07
43125;BME280;49182;50.788;7.318;2023-04-01T09:28:40;99007.75;;;10.75;94.35
43125;BME280;49182;50.788;7.318;2023-04-01T09:31:32;99012.34;;;10.81;96.07
43125;BME280;49182;50.788;7.318;2023-04-01T09:37:21;99001.06;;;10.87;93.53
43125;BME280;49182;50.788;7.318;2023-04-01T09:40:09;99018.34;;;10.98;91.58
43125;BME280;49182;50.788;7.318;2023-04-01T09:42:49;99017.94;;;11.09;92.34
43125;BME280;49182;50.788;7.318;2023-04-01T09:45:29;99025.38;;;11.06;92.51
43125;BME280;49182;50.788;7.318;2023-04-01T09:48:12;99023.38;;;11.08;91.75
43125;BME280;49182;50.788;7.318;2023-04-01T09:50:47;99024.75;;;11.04;91.83
43125;BME280;49182;50.788;7.318;2023-04-01T09:53:35;99033.00;;;11.01;91.91
43125;BME280;49182;50.788;7.318;2023-04-01T09:56:31;99035.47;;;11.02;92.13
43125;BME280;49182;50.788;7.318;2023-04-01T09:59:41;99034.47;;;11.03;92.25
43125;BME280;49182;50.788;7.318;2023-04-01T10:02:53;99043.28;;;10.95;93.38
43125;BME280;49182;50.788;7.318;2023-04-01T10:05:53;99033.16;;;10.99;93.24
43125;BME280;49182;50.788;7.318;2023-04-01T10:11:41;99046.91;;;10.94;94.03
43125;BME280;49182;50.788;7.318;2023-04-01T10:14:29;99054.50;;;10.98;93.42
43125;BME280;49182;50.788;7.318;2023-04-01T10:22:58;99051.63;;;10.76;92.51
43125;BME280;49182;50.788;7.318;2023-04-01T10:25:59;99044.97;;;10.88;91.08
43125;BME280;49182;50.788;7.318;2023-04-01T10:28:38;99061.28;;;10.92;91.40
43125;BME280;49182;50.788;7.318;2023-04-01T10:35:02;99065.75;;;10.91;91.56
43125;BME280;49182;50.788;7.318;2023-04-01T10:37:49;99052.22;;;10.86;90.77
43125;BME280;49182;50.788;7.318;2023-04-01T10:40:36;99067.03;;;10.95;89.57
43125;BME280;49182;50.788;7.318;2023-04-01T10:43:44;99061.16;;;10.85;90.82
43125;BME280;49182;50.788;7.318;2023-04-01T10:46:40;99068.94;;;11.10;89.30
43125;BME280;49182;50.788;7.318;2023-04-01T10:49:37;99062.66;;;11.11;89.12
43125;BME280;49182;50.788;7.318;2023-04-01T10:55:36;99067.00;;;11.04;87.95
43125;BME280;49182;50.788;7.318;2023-04-01T10:58:56;99065.31;;;11.11;88.04
43125;BME280;49182;50.788;7.318;2023-04-01T11:05:42;99074.69;;;11.13;88.01
43125;BME280;49182;50.788;7.318;2023-04-01T11:15:27;99081.66;;;11.06;86.13
43125;BME280;49182;50.788;7.318;2023-04-01T11:18:41;99085.59;;;11.10;87.67
43125;BME280;49182;50.788;7.318;2023-04-01T11:27:57;99092.50;;;11.11;88.21
43125;BME280;49182;50.788;7.318;2023-04-01T11:30:43;99096.38;;;11.23;87.93
43125;BME280;49182;50.788;7.318;2023-04-01T11:33:18;99096.09;;;11.18;86.81
43125;BME280;49182;50.788;7.318;2023-04-01T11:35:56;99088.28;;;11.25;86.93
43125;BME280;49182;50.788;7.318;2023-04-01T11:38:35;99104.09;;;11.33;86.85
43125;BME280;49182;50.788;7.318;2023-04-01T11:41:40;99108.31;;;11.42;86.15
43125;BME280;49182;50.788;7.318;2023-04-01T11:44:53;99125.41;;;11.54;86.91
43125;BME280;49182;50.788;7.318;2023-04-01T11:47:48;99122.25;;;11.59;85.95
43125;BME280;49182;50.788;7.318;2023-04-01T11:50:27;99127.88;;;11.56;87.60
43125;BME280;49182;50.788;7.318;2023-04-01T11:53:15;99125.63;;;11.67;87.42
43125;BME280;49182;50.788;7.318;2023-04-01T11:55:54;99136.34;;;11.74;87.09
43125;BME280;49182;50.788;7.318;2023-04-01T11:58:36;99127.47;;;11.90;88.37
43125;BME280;49182;50.788;7.318;2023-04-01T12:01:14;99129.13;;;12.05;89.13
43125;BME280;49182;50.788;7.318;2023-04-01T12:04:16;99131.59;;;12.07;88.78
43125;BME280;49182;50.788;7.318;2023-04-01T12:06:56;99141.03;;;12.24;87.44
43125;BME280;49182;50.788;7.318;2023-04-01T12:09:34;99140.19;;;12.24;86.94
43125;BME280;49182;50.788;7.318;2023-04-01T12:12:15;99152.53;;;12.31;86.48
43125;BME280;49182;50.788;7.318;2023-04-01T12:14:52;99146.69;;;12.36;86.27
43125;BME280;49182;50.788;7.318;2023-04-01T12:17:29;99150.44;;;12.41;86.43
43125;BME280;49182;50.788;7.318;2023-04-01T12:20:16;99150.25;;;12.43;85.89
43125;BME280;49182;50.788;7.318;2023-04-01T12:22:55;99160.19;;;12.26;85.22
43125;BME280;49182;50.788;7.318;2023-04-01T12:25:38;99156.97;;;12.16;86.00
43125;BME280;49182;50.788;7.318;2023-04-01T12:28:19;99153.59;;;12.07;85.29
43125;BME280;49182;50.788;7.318;2023-04-01T12:30:58;99155.88;;;12.10;86.61
43125;BME280;49182;50.788;7.318;2023-04-01T12:33:48;99160.72;;;12.07;86.62
43125;BME280;49182;50.788;7.318;2023-04-01T12:36:28;99161.59;;;11.99;83.91
43125;BME280;49182;50.788;7.318;2023-04-01T12:39:22;99166.53;;;12.02;86.13
43125;BME280;49182;50.788;7.318;2023-04-01T12:42:01;99173.94;;;12.07;85.94
43125;BME280;49182;50.788;7.318;2023-04-01T12:47:38;99144.06;;;11.84;86.32
43125;BME280;49182;50.788;7.318;2023-04-01T12:50:22;99175.66;;;12.00;85.99
43125;BME280;49182;50.788;7.318;2023-04-01T12:53:10;99179.78;;;12.02;86.21
43125;BME280;49182;50.788;7.318;2023-04-01T12:55:41;99181.03;;;12.06;86.33
43125;BME280;49182;50.788;7.318;2023-04-01T12:58:23;99194.44;;;12.05;85.91
43125;BME280;49182;50.788;7.318;2023-04-01T13:04:02;99196.84;;;12.14;85.06
43125;BME280;49182;50.788;7.318;2023-04-01T13:06:46;99192.50;;;12.22;85.30
43125;BME280;49182;50.788;7.318;2023-04-01T13:09:24;99200.34;;;12.30;85.31
43125;BME280;49182;50.788;7.318;2023-04-01T13:12:09;99194.81;;;12.39;85.14
43125;BME280;49182;50.788;7.318;2023-04-01T13:14:56;99190.09;;;12.12;83.29
43125;BME280;49182;50.788;7.318;2023-04-01T13:17:29;99212.84;;;12.21;84.73
43125;BME280;49182;50.788;7.318;2023-04-01T13:20:04;99200.22;;;12.23;85.30
43125;BME280;49182;50.788;7.318;2023-04-01T13:22:45;99204.63;;;12.31;85.29
43125;BME280;49182;50.788;7.318;2023-04-01T13:25:24;99192.13;;;12.25;84.45
43125;BME280;49182;50.788;7.318;2023-04-01T13:27:56;99215.78;;;12.26;82.02
43125;BME280;49182;50.788;7.318;2023-04-01T13:30:30;99216.47;;;12.20;82.52
43125;BME280;49182;50.788;7.318;2023-04-01T13:33:03;99223.81;;;12.10;81.57
43125;BME280;49182;50.788;7.318;2023-04-01T13:35:38;99224.59;;;12.19;82.98
43125;BME280;49182;50.788;7.318;2023-04-01T13:38:47;99223.03;;;12.09;82.98
43125;BME280;49182;50.788;7.318;2023-04-01T13:41:23;99226.19;;;12.05;82.25
43125;BME280;49182;50.788;7.318;2023-04-01T13:43:59;99226.84;;;12.07;82.79
43125;BME280;49182;50.788;7.318;2023-04-01T13:46:51;99223.78;;;11.95;83.23
43125;BME280;49182;50.788;7.318;2023-04-01T13:49:40;99228.25;;;11.95;83.49
43125;BME280;49182;50.788;7.318;2023-04-01T13:52:25;99220.22;;;11.88;83.39
43125;BME280;49182;50.788;7.318;2023-04-01T13:55:14;99219.06;;;11.91;83.90
43125;BME280;49182;50.788;7.318;2023-04-01T13:58:08;99233.97;;;11.84;83.14
43125;BME280;49182;50.788;7.318;2023-04-01T14:00:50;99226.31;;;11.89;82.88
43125;BME280;49182;50.788;7.318;2023-04-01T14:03:28;99229.09;;;11.95;82.66
43125;BME280;49182;50.788;7.318;2023-04-01T14:06:05;99222.41;;;11.85;83.50
43125;BME280;49182;50.788;7.318;2023-04-01T14:08:56;99242.84;;;11.91;82.84
43125;BME280;49182;50.788;7.318;2023-04-01T14:11:31;99236.09;;;11.88;84.56
43125;BME280;49182;50.788;7.318;2023-04-01T14:14:12;99218.44;;;11.81;85.58
43125;BME280;49182;50.788;7.318;2023-04-01T14:16:57;99239.81;;;11.71;84.69
43125;BME280;49182;50.788;7.318;2023-04-01T14:19:36;99253.03;;;11.71;86.78
43125;BME280;49182;50.788;7.318;2023-04-01T14:22:13;99261.41;;;11.83;86.26
43125;BME280;49182;50.788;7.318;2023-04-01T14:25:15;99259.72;;;11.90;86.70
43125;BME280;49182;50.788;7.318;2023-04-01T14:27:54;99253.78;;;11.88;88.15
43125;BME280;49182;50.788;7.318;2023-04-01T14:30:42;99251.41;;;11.93;86.75
43125;BME280;49182;50.788;7.318;2023-04-01T14:33:25;99259.84;;;11.96;86.94
43125;BME280;49182;50.788;7.318;2023-04-01T14:36:06;99254.13;;;12.07;86.81
43125;BME280;49182;50.788;7.318;2023-04-01T14:38:53;99241.63;;;11.70;86.27
43125;BME280;49182;50.788;7.318;2023-04-01T14:41:38;99253.44;;;11.91;86.64
43125;BME280;49182;50.788;7.318;2023-04-01T14:44:21;99262.78;;;12.01;84.88